sensor_id;sensor_type;location;lat;lon;timestamp;pressure;altitude;pressure_sealevel;temperature;humidity
43155;BME280;34212;51.018;13.586;2023-02-26T00:03:20;97207.38;;;1.80;92.59
43155;BME280;34212;51.018;13.586;2023-02-26T00:08:22;97212.25;;;1.75;92.90
43155;BME280;34212;51.018;13.586;2023-02-26T00:13:24;97218.47;;;1.74;92.86
43155;BME280;34212;51.018;13.586;2023-02-26T00:18:26;97222.78;;;1.75;92.78
43155;BME280;34212;51.018;13.586;2023-02-26T00:23:28;97232.59;;;1.73;92.54
43155;BME280;34212;51.018;13.586;2023-02-26T00:28:29;97237.41;;;1.68;92.92
43155;BME280;34212;51.018;13.586;2023-02-26T00:33:31;97238.41;;;1.67;92.90
43155;BME280;34212;51.018;13.586;2023-02-26T00:38:33;97249.19;;;1.64;92.66
43155;BME280;34212;51.018;13.586;2023-02-26T00:43:36;97251.53;;;1.67;93.52
43155;BME280;34212;51.018;13.586;2023-02-26T00:48:56;97248.09;;;1.67;92.90
43155;BME280;34212;51.018;13.586;2023-02-26T00:54:19;97246.28;;;1.67;92.92
43155;BME280;34212;51.018;13.586;2023-02-26T00:59:24;97253.91;;;1.70;93.12
43155;BME280;34212;51.018;13.586;2023-02-26T01:04:26;97252.53;;;1.66;93.19
43155;BME280;34212;51.018;13.586;2023-02-26T01:09:30;97251.81;;;1.64;92.89
43155;BME280;34212;51.018;13.586;2023-02-26T01:14:32;97250.56;;;1.68;92.82
43155;BME280;34212;51.018;13.586;2023-02-26T01:19:57;97258.72;;;1.65;92.77
43155;BME280;34212;51.018;13.586;2023-02-26T01:25:08;97254.44;;;1.64;92.96
43155;BME280;34212;51.018;13.586;2023-02-26T01:30:10;97265.94;;;1.63;93.16
43155;BME280;34212;51.018;13.586;2023-02-26T01:35:36;97266.91;;;1.62;93.39
43155;BME280;34212;51.018;13.586;2023-02-26T01:51:08;97268.69;;;1.61;93.50
43155;BME280;34212;51.018;13.586;2023-02-26T01:56:14;97282.09;;;1.58;93.05
43155;BME280;34212;51.018;13.586;2023-02-26T02:01:18;97289.59;;;1.63;93.95
43155;BME280;34212;51.018;13.586;2023-02-26T02:06:22;97290.97;;;1.67;93.59
43155;BME280;34212;51.018;13.586;2023-02-26T02:11:25;97290.44;;;1.73;93.41
43155;BME280;34212;51.018;13.586;2023-02-26T02:32:17;97323.22;;;1.79;92.82
43155;BME280;34212;51.018;13.586;2023-02-26T02:37:31;97325.31;;;1.75;93.51
43155;BME280;34212;51.018;13.586;2023-02-26T02:42:40;97341.75;;;1.77;93.00
43155;BME280;34212;51.018;13.586;2023-02-26T02:47:47;97336.94;;;1.82;93.62
43155;BME280;34212;51.018;13.586;2023-02-26T02:52:57;97352.03;;;1.90;93.22
43155;BME280;34212;51.018;13.586;2023-02-26T02:58:05;97357.03;;;1.93;93.21
43155;BME280;34212;51.018;13.586;2023-02-26T03:08:17;97379.28;;;1.99;92.64
43155;BME280;34212;51.018;13.586;2023-02-26T03:13:23;97380.00;;;2.01;92.54
43155;BME280;34212;51.018;13.586;2023-02-26T03:24:25;97398.97;;;2.04;92.88
43155;BME280;34212;51.018;13.586;2023-02-26T03:34:42;97416.28;;;2.07;92.56
43155;BME280;34212;51.018;13.586;2023-02-26T03:39:50;97434.53;;;2.08;92.56
43155;BME280;34212;51.018;13.586;2023-02-26T03:45:01;97430.25;;;2.07;92.27
43155;BME280;34212;51.018;13.586;2023-02-26T03:55:35;97453.81;;;2.09;92.00
43155;BME280;34212;51.018;13.586;2023-02-26T04:01:01;97455.03;;;2.05;92.45
43155;BME280;34212;51.018;13.586;2023-02-26T04:06:04;97461.13;;;2.05;92.35
43155;BME280;34212;51.018;13.586;2023-02-26T04:11:09;97478.16;;;2.01;92.81
43155;BME280;34212;51.018;13.586;2023-02-26T04:16:12;97478.03;;;2.03;92.96
43155;BME280;34212;51.018;13.586;2023-02-26T04:21:18;97486.59;;;2.05;92.93
43155;BME280;34212;51.018;13.586;2023-02-26T04:26:21;97498.22;;;2.02;92.49
43155;BME280;34212;51.018;13.586;2023-02-26T04:31:23;97510.81;;;1.99;92.83
43155;BME280;34212;51.018;13.586;2023-02-26T04:36:25;97508.88;;;2.01;92.90
43155;BME280;34212;51.018;13.586;2023-02-26T04:41:27;97514.56;;;1.96;93.05
43155;BME280;34212;51.018;13.586;2023-02-26T04:46:29;97513.44;;;1.99;93.19
43155;BME280;34212;51.018;13.586;2023-02-26T04:51:31;97514.97;;;2.01;92.96
43155;BME280;34212;51.018;13.586;2023-02-26T04:56:32;97528.84;;;2.03;92.42
43155;BME280;34212;51.018;13.586;2023-02-26T05:01:36;97544.47;;;2.05;92.39
43155;BME280;34212;51.018;13.586;2023-02-26T05:06:41;97546.16;;;2.06;92.48
43155;BME280;34212;51.018;13.586;2023-02-26T05:11:42;97550.16;;;2.10;92.20
43155;BME280;34212;51.018;13.586;2023-02-26T05:16:44;97565.69;;;2.13;92.17
43155;BME280;34212;51.018;13.586;2023-02-26T05:21:46;97561.13;;;2.15;92.63
43155;BME280;34212;51.018;13.586;2023-02-26T05:26:49;97567.06;;;2.17;92.14
43155;BME280;34212;51.018;13.586;2023-02-26T05:31:50;97571.50;;;2.17;92.39
43155;BME280;34212;51.018;13.586;2023-02-26T05:36:52;97587.31;;;2.17;92.31
43155;BME280;34212;51.018;13.586;2023-02-26T05:41:54;97592.81;;;2.14;92.12
43155;BME280;34212;51.018;13.586;2023-02-26T05:46:57;97596.56;;;2.11;91.83
43155;BME280;34212;51.018;13.586;2023-02-26T05:51:58;97609.97;;;2.08;92.29
43155;BME280;34212;51.018;13.586;2023-02-26T05:57:00;97624.22;;;2.05;92.24
43155;BME280;34212;51.018;13.586;2023-02-26T06:02:01;97627.97;;;2.03;92.52
43155;BME280;34212;51.018;13.586;2023-02-26T06:07:03;97637.63;;;2.02;92.60
43155;BME280;34212;51.018;13.586;2023-02-26T06:12:04;97649.44;;;2.08;92.49
43155;BME280;34212;51.018;13.586;2023-02-26T06:17:08;97654.84;;;2.06;92.52
43155;BME280;34212;51.018;13.586;2023-02-26T06:22:09;97660.66;;;2.10;92.51
43155;BME280;34212;51.018;13.586;2023-02-26T06:27:11;97668.66;;;2.08;92.03
43155;BME280;34212;51.018;13.586;2023-02-26T06:32:12;97673.34;;;2.05;92.20
43155;BME280;34212;51.018;13.586;2023-02-26T06:37:14;97691.09;;;2.03;92.96
43155;BME280;34212;51.018;13.586;2023-02-26T06:42:16;97691.09;;;2.03;92.52
43155;BME280;34212;51.018;13.586;2023-02-26T06:47:20;97705.91;;;2.04;92.33
43155;BME280;34212;51.018;13.586;2023-02-26T06:52:21;97707.69;;;2.03;92.42
43155;BME280;34212;51.018;13.586;2023-02-26T06:57:23;97720.97;;;2.02;92.37
43155;BME280;34212;51.018;13.586;2023-02-26T07:02:24;97723.75;;;2.00;92.59
43155;BME280;34212;51.018;13.586;2023-02-26T07:07:26;97733.28;;;2.01;92.63
43155;BME280;34212;51.018;13.586;2023-02-26T07:12:28;97737.84;;;1.99;92.70
43155;BME280;34212;51.018;13.586;2023-02-26T07:17:30;97752.78;;;1.99;93.23
43155;BME280;34212;51.018;13.586;2023-02-26T07:22:31;97762.63;;;1.97;93.06
43155;BME280;34212;51.018;13.586;2023-02-26T07:27:34;97777.56;;;1.96;93.04
43155;BME280;34212;51.018;13.586;2023-02-26T07:32:36;97784.50;;;1.97;93.05
43155;BME280;34212;51.018;13.586;2023-02-26T07:37:38;97791.31;;;2.00;93.58
43155;BME280;34212;51.018;13.586;2023-02-26T07:42:39;97792.97;;;2.01;93.03
43155;BME280;34212;51.018;13.586;2023-02-26T07:47:41;97796.81;;;1.97;92.92
43155;BME280;34212;51.018;13.586;2023-02-26T07:52:42;97800.84;;;2.01;92.93
43155;BME280;34212;51.018;13.586;2023-02-26T07:57:44;97812.34;;;2.00;92.96
43155;BME280;34212;51.018;13.586;2023-02-26T08:02:45;97818.69;;;1.97;93.08
43155;BME280;34212;51.018;13.586;2023-02-26T08:07:47;97816.41;;;1.93;93.06
43155;BME280;34212;51.018;13.586;2023-02-26T08:12:49;97827.31;;;1.88;93.38
43155;BME280;34212;51.018;13.586;2023-02-26T08:17:51;97831.94;;;1.96;93.70
43155;BME280;34212;51.018;13.586;2023-02-26T08:22:53;97838.91;;;1.97;93.85
43155;BME280;34212;51.018;13.586;2023-02-26T08:27:55;97841.38;;;1.98;93.81
43155;BME280;34212;51.018;13.586;2023-02-26T08:32:58;97861.09;;;2.04;93.67
43155;BME280;34212;51.018;13.586;2023-02-26T08:38:00;97863.97;;;2.12;94.32
43155;BME280;34212;51.018;13.586;2023-02-26T08:43:01;97882.81;;;2.17;94.10
43155;BME280;34212;51.018;13.586;2023-02-26T08:48:04;97882.81;;;2.17;93.92
43155;BME280;34212;51.018;13.586;2023-02-26T08:53:05;97895.28;;;2.15;94.19
43155;BME280;34212;51.018;13.586;2023-02-26T08:58:07;97890.47;;;2.20;94.02
43155;BME280;34212;51.018;13.586;2023-02-26T09:03:09;97904.59;;;2.19;93.55
43155;BME280;34212;51.018;13.586;2023-02-26T09:08:10;97918.00;;;2.16;94.18
43155;BME280;34212;51.018;13.586;2023-02-26T09:13:15;97921.34;;;2.18;94.41
43155;BME280;34212;51.018;13.586;2023-02-26T09:18:16;97928.97;;;2.21;93.89
43155;BME280;34212;51.018;13.586;2023-02-26T09:23:18;97930.97;;;2.29;94.26
43155;BME280;34212;51.018;13.586;2023-02-26T09:28:20;97939.94;;;2.38;94.23
43155;BME280;34212;51.018;13.586;2023-02-26T09:33:22;97948.50;;;2.40;94.11
43155;BME280;34212;51.018;13.586;2023-02-26T09:38:24;97960.25;;;2.36;94.22
43155;BME280;34212;51.018;13.586;2023-02-26T09:43:55;97968.88;;;2.38;94.28
43155;BME280;34212;51.018;13.586;2023-02-26T09:49:27;97967.81;;;2.40;94.41
43155;BME280;34212;51.018;13.586;2023-02-26T09:54:36;97977.09;;;2.44;93.85
43155;BME280;34212;51.018;13.586;2023-02-26T09:59:42;97990.59;;;2.51;94.80
43155;BME280;34212;51.018;13.586;2023-02-26T10:04:50;97987.97;;;2.51;93.64
43155;BME280;34212;51.018;13.586;2023-02-26T10:15:10;98011.19;;;2.57;94.11
43155;BME280;34212;51.018;13.586;2023-02-26T10:20:22;98015.03;;;2.53;93.76
43155;BME280;34212;51.018;13.586;2023-02-26T10:25:34;98015.97;;;2.52;93.69
43155;BME280;34212;51.018;13.586;2023-02-26T10:30:49;98025.56;;;2.53;94.29
43155;BME280;34212;51.018;13.586;2023-02-26T10:36:01;98028.88;;;2.55;93.95
43155;BME280;34212;51.018;13.586;2023-02-26T10:41:09;98038.00;;;2.51;93.96
43155;BME280;34212;51.018;13.586;2023-02-26T10:51:27;98049.94;;;2.55;94.37
43155;BME280;34212;51.018;13.586;2023-02-26T10:56:33;98054.13;;;2.58;94.10
43155;BME280;34212;51.018;13.586;2023-02-26T11:01:35;98057.81;;;2.66;94.31
43155;BME280;34212;51.018;13.586;2023-02-26T11:06:47;98060.31;;;2.79;94.15
43155;BME280;34212;51.018;13.586;2023-02-26T11:11:51;98060.44;;;2.77;93.64
43155;BME280;34212;51.018;13.586;2023-02-26T11:16:55;98056.66;;;2.91;93.50
43155;BME280;34212;51.018;13.586;2023-02-26T11:21:59;98061.81;;;2.93;93.73
43155;BME280;34212;51.018;13.586;2023-02-26T11:27:05;98061.44;;;2.65;92.80
43155;BME280;34212;51.018;13.586;2023-02-26T11:32:19;98064.81;;;2.45;93.07
43155;BME280;34212;51.018;13.586;2023-02-26T11:37:23;98068.66;;;2.41;94.34
43155;BME280;34212;51.018;13.586;2023-02-26T11:42:27;98071.16;;;2.53;94.43
43155;BME280;34212;51.018;13.586;2023-02-26T11:47:29;98074.78;;;2.73;94.72
43155;BME280;34212;51.018;13.586;2023-02-26T11:52:40;98072.38;;;2.82;93.73
43155;BME280;34212;51.018;13.586;2023-02-26T11:57:42;98075.50;;;2.87;93.39
43155;BME280;34212;51.018;13.586;2023-02-26T12:02:43;98083.25;;;2.88;92.83
43155;BME280;34212;51.018;13.586;2023-02-26T12:07:45;98079.56;;;2.80;93.41
43155;BME280;34212;51.018;13.586;2023-02-26T12:18:39;98085.09;;;2.76;92.48
43155;BME280;34212;51.018;13.586;2023-02-26T12:29:19;98091.31;;;2.75;92.23
43155;BME280;34212;51.018;13.586;2023-02-26T12:39:56;98092.25;;;2.86;91.08
43155;BME280;34212;51.018;13.586;2023-02-26T13:07:05;98125.72;;;2.18;93.58
43155;BME280;34212;51.018;13.586;2023-02-26T13:12:22;98123.94;;;2.29;93.85
43155;BME280;34212;51.018;13.586;2023-02-26T13:17:27;98119.03;;;2.47;93.43
43155;BME280;34212;51.018;13.586;2023-02-26T13:22:39;98125.38;;;2.56;92.63
43155;BME280;34212;51.018;13.586;2023-02-26T13:27:42;98123.41;;;2.81;93.21
43155;BME280;34212;51.018;13.586;2023-02-26T13:32:46;98134.28;;;2.87;92.13
43155;BME280;34212;51.018;13.586;2023-02-26T13:37:52;98146.63;;;2.75;91.36
43155;BME280;34212;51.018;13.586;2023-02-26T13:58:37;98158.88;;;2.31;92.58
43155;BME280;34212;51.018;13.586;2023-02-26T14:03:40;98166.63;;;2.33;93.37
43155;BME280;34212;51.018;13.586;2023-02-26T14:08:44;98157.81;;;2.34;92.67
43155;BME280;34212;51.018;13.586;2023-02-26T14:14:12;98162.59;;;2.40;93.39
43155;BME280;34212;51.018;13.586;2023-02-26T14:19:32;98153.97;;;2.38;93.22
43155;BME280;34212;51.018;13.586;2023-02-26T14:24:36;98164.72;;;2.35;92.62
43155;BME280;34212;51.018;13.586;2023-02-26T14:35:20;98165.81;;;2.44;93.20
43155;BME280;34212;51.018;13.586;2023-02-26T14:40:22;98168.22;;;2.47;93.11
43155;BME280;34212;51.018;13.586;2023-02-26T14:45:35;98167.84;;;2.40;92.76
43155;BME280;34212;51.018;13.586;2023-02-26T14:56:30;98183.16;;;2.13;92.23
43155;BME280;34212;51.018;13.586;2023-02-26T15:01:48;98176.44;;;2.20;93.01
43155;BME280;34212;51.018;13.586;2023-02-26T15:12:42;98175.38;;;2.56;93.57
43155;BME280;34212;51.018;13.586;2023-02-26T15:28:28;98191.44;;;2.53;92.66
43155;BME280;34212;51.018;13.586;2023-02-26T15:33:30;98199.44;;;2.40;92.23
43155;BME280;34212;51.018;13.586;2023-02-26T15:39:00;98204.56;;;2.30;92.26
43155;BME280;34212;51.018;13.586;2023-02-26T15:44:07;98210.91;;;2.28;93.12
43155;BME280;34212;51.018;13.586;2023-02-26T15:54:39;98216.88;;;2.30;92.82
43155;BME280;34212;51.018;13.586;2023-02-26T15:59:45;98220.34;;;2.30;92.65
43155;BME280;34212;51.018;13.586;2023-02-26T16:04:47;98227.78;;;2.25;92.86
43155;BME280;34212;51.018;13.586;2023-02-26T16:09:50;98229.91;;;2.20;92.61
43155;BME280;34212;51.018;13.586;2023-02-26T16:14:57;98223.78;;;2.08;92.71
43155;BME280;34212;51.018;13.586;2023-02-26T16:20:05;98231.75;;;1.96;92.08
43155;BME280;34212;51.018;13.586;2023-02-26T16:25:29;98232.44;;;1.87;92.13
43155;BME280;34212;51.018;13.586;2023-02-26T16:30:36;98241.31;;;1.85;92.64
43155;BME280;34212;51.018;13.586;2023-02-26T16:35:44;98247.31;;;1.88;92.75
43155;BME280;34212;51.018;13.586;2023-02-26T16:40:55;98251.09;;;1.83;92.11
43155;BME280;34212;51.018;13.586;2023-02-26T16:45:59;98265.19;;;1.82;92.41
43155;BME280;34212;51.018;13.586;2023-02-26T16:51:07;98265.09;;;1.84;92.69
43155;BME280;34212;51.018;13.586;2023-02-26T16:56:12;98281.72;;;1.84;92.34
43155;BME280;34212;51.018;13.586;2023-02-26T17:01:18;98288.41;;;1.89;92.54
43155;BME280;34212;51.018;13.586;2023-02-26T17:06:22;98304.34;;;1.98;92.36
43155;BME280;34212;51.018;13.586;2023-02-26T17:11:26;98304.13;;;2.01;92.29
43155;BME280;34212;51.018;13.586;2023-02-26T17:16:30;98325.06;;;2.03;92.09
43155;BME280;34212;51.018;13.586;2023-02-26T17:21:31;98323.50;;;2.00;91.79
43155;BME280;34212;51.018;13.586;2023-02-26T17:26:33;98334.34;;;1.96;92.00
43155;BME280;34212;51.018;13.586;2023-02-26T17:31:34;98339.38;;;1.99;92.40
43155;BME280;34212;51.018;13.586;2023-02-26T17:36:36;98347.19;;;2.00;91.99
43155;BME280;34212;51.018;13.586;2023-02-26T17:41:39;98350.66;;;2.01;91.95
43155;BME280;34212;51.018;13.586;2023-02-26T17:46:42;98358.53;;;2.01;92.38
43155;BME280;34212;51.018;13.586;2023-02-26T17:51:44;98362.84;;;2.02;92.20
43155;BME280;34212;51.018;13.586;2023-02-26T17:56:46;98372.31;;;2.04;92.64
43155;BME280;34212;51.018;13.586;2023-02-26T18:01:49;98372.09;;;2.07;92.47
43155;BME280;34212;51.018;13.586;2023-02-26T18:06:51;98378.19;;;2.08;92.04
43155;BME280;34212;51.018;13.586;2023-02-26T18:11:53;98388.09;;;2.04;91.53
43155;BME280;34212;51.018;13.586;2023-02-26T18:16:55;98395.25;;;2.02;91.70
43155;BME280;34212;51.018;13.586;2023-02-26T18:21:56;98391.16;;;1.98;91.61
43155;BME280;34212;51.018;13.586;2023-02-26T18:26:58;98405.59;;;1.93;91.76
43155;BME280;34212;51.018;13.586;2023-02-26T18:31:59;98406.69;;;1.90;91.25
43155;BME280;34212;51.018;13.586;2023-02-26T18:37:03;98416.56;;;1.87;91.24
43155;BME280;34212;51.018;13.586;2023-02-26T18:42:05;98414.91;;;1.85;91.74
43155;BME280;34212;51.018;13.586;2023-02-26T18:47:07;98426.88;;;1.90;91.63
43155;BME280;34212;51.018;13.586;2023-02-26T18:52:09;98425.94;;;1.91;91.78
43155;BME280;34212;51.018;13.586;2023-02-26T18:57:11;98438.56;;;1.85;91.58
43155;BME280;34212;51.018;13.586;2023-02-26T19:02:13;98450.25;;;1.81;91.33
43155;BME280;34212;51.018;13.586;2023-02-26T19:07:15;98450.69;;;1.75;91.30
43155;BME280;34212;51.018;13.586;2023-02-26T19:12:16;98461.66;;;1.69;91.22
43155;BME280;34212;51.018;13.586;2023-02-26T19:17:20;98465.44;;;1.65;91.26
43155;BME280;34212;51.018;13.586;2023-02-26T19:22:22;98470.69;;;1.65;91.29
43155;BME280;34212;51.018;13.586;2023-02-26T19:27:23;98475.31;;;1.61;91.27
43155;BME280;34212;51.018;13.586;2023-02-26T19:32:25;98479.25;;;1.56;90.77
43155;BME280;34212;51.018;13.586;2023-02-26T19:37:27;98481.56;;;1.48;90.66
43155;BME280;34212;51.018;13.586;2023-02-26T19:42:29;98492.38;;;1.43;89.85
43155;BME280;34212;51.018;13.586;2023-02-26T19:47:30;98492.16;;;1.33;89.61
43155;BME280;34212;51.018;13.586;2023-02-26T19:52:32;98498.03;;;1.24;90.17
43155;BME280;34212;51.018;13.586;2023-02-26T19:57:34;98498.47;;;1.18;90.02
43155;BME280;34212;51.018;13.586;2023-02-26T20:02:35;98499.75;;;1.12;89.97
43155;BME280;34212;51.018;13.586;2023-02-26T20:07:37;98513.38;;;1.05;90.27
43155;BME280;34212;51.018;13.586;2023-02-26T20:12:38;98527.56;;;1.02;90.77
43155;BME280;34212;51.018;13.586;2023-02-26T20:17:40;98537.13;;;1.03;90.87
43155;BME280;34212;51.018;13.586;2023-02-26T20:22:41;98536.25;;;1.03;90.61
43155;BME280;34212;51.018;13.586;2023-02-26T20:27:43;98541.72;;;1.00;90.56
43155;BME280;34212;51.018;13.586;2023-02-26T20:32:45;98544.03;;;0.91;90.27
43155;BME280;34212;51.018;13.586;2023-02-26T20:37:46;98553.28;;;0.84;90.47
43155;BME280;34212;51.018;13.586;2023-02-26T20:42:49;98544.84;;;0.79;90.20
43155;BME280;34212;51.018;13.586;2023-02-26T20:47:50;98553.75;;;0.77;89.86
43155;BME280;34212;51.018;13.586;2023-02-26T20:52:52;98555.81;;;0.72;89.80
43155;BME280;34212;51.018;13.586;2023-02-26T20:57:53;98559.41;;;0.71;89.66
43155;BME280;34212;51.018;13.586;2023-02-26T21:02:55;98573.38;;;0.71;89.68
43155;BME280;34212;51.018;13.586;2023-02-26T21:07:57;98565.59;;;0.69;89.78
43155;BME280;34212;51.018;13.586;2023-02-26T21:12:59;98573.56;;;0.68;89.40
43155;BME280;34212;51.018;13.586;2023-02-26T21:18:00;98580.72;;;0.66;89.03
43155;BME280;34212;51.018;13.586;2023-02-26T21:23:02;98582.78;;;0.61;89.12
43155;BME280;34212;51.018;13.586;2023-02-26T21:28:03;98595.84;;;0.62;89.49
43155;BME280;34212;51.018;13.586;2023-02-26T21:33:05;98602.38;;;0.69;89.25
43155;BME280;34212;51.018;13.586;2023-02-26T21:38:08;98604.69;;;0.74;88.92
43155;BME280;34212;51.018;13.586;2023-02-26T21:43:10;98610.50;;;0.79;89.61
43155;BME280;34212;51.018;13.586;2023-02-26T21:48:11;98614.59;;;0.83;89.32
43155;BME280;34212;51.018;13.586;2023-02-26T21:53:13;98605.78;;;0.84;89.14
43155;BME280;34212;51.018;13.586;2023-02-26T21:58:14;98616.28;;;0.84;88.91
43155;BME280;34212;51.018;13.586;2023-02-26T22:03:16;98610.84;;;0.87;89.21
43155;BME280;34212;51.018;13.586;2023-02-26T22:08:18;98612.41;;;0.90;89.30
43155;BME280;34212;51.018;13.586;2023-02-26T22:13:19;98622.81;;;0.91;88.76
43155;BME280;34212;51.018;13.586;2023-02-26T22:18:21;98624.69;;;0.89;88.41
43155;BME280;34212;51.018;13.586;2023-02-26T22:23:22;98618.81;;;0.86;88.13
43155;BME280;34212;51.018;13.586;2023-02-26T22:28:24;98619.84;;;0.83;87.94
43155;BME280;34212;51.018;13.586;2023-02-26T22:33:26;98620.69;;;0.84;88.13
43155;BME280;34212;51.018;13.586;2023-02-26T22:38:28;98625.00;;;0.85;87.96
43155;BME280;34212;51.018;13.586;2023-02-26T22:43:29;98639.19;;;0.82;88.17
43155;BME280;34212;51.018;13.586;2023-02-26T22:48:31;98625.09;;;0.83;88.27
43155;BME280;34212;51.018;13.586;2023-02-26T22:53:32;98630.16;;;0.86;88.47
43155;BME280;34212;51.018;13.586;2023-02-26T22:58:33;98635.31;;;0.88;88.82
43155;BME280;34212;51.018;13.586;2023-02-26T23:03:35;98631.66;;;0.90;89.06
43155;BME280;34212;51.018;13.586;2023-02-26T23:08:36;98630.91;;;0.88;89.13
43155;BME280;34212;51.018;13.586;2023-02-26T23:13:38;98625.72;;;0.87;88.83
43155;BME280;34212;51.018;13.586;2023-02-26T23:18:40;98632.25;;;0.81;88.77
43155;BME280;34212;51.018;13.586;2023-02-26T23:23:45;98635.06;;;0.78;88.13
43155;BME280;34212;51.018;13.586;2023-02-26T23:28:47;98636.56;;;0.68;87.04
43155;BME280;34212;51.018;13.586;2023-02-26T23:33:48;98635.69;;;0.55;86.86
43155;BME280;34212;51.018;13.586;2023-02-26T23:38:50;98637.94;;;0.46;86.77
43155;BME280;34212;51.018;13.586;2023-02-26T23:43:51;98641.88;;;0.39;86.70
43155;BME280;34212;51.018;13.586;2023-02-26T23:48:53;98649.19;;;0.34;86.08
43155;BME280;34212;51.018;13.586;2023-02-26T23:53:55;98647.88;;;0.27;86.33
43155;BME280;34212;51.018;13.586;2023-02-26T23:58:57;98652.88;;;0.17;86.19
